Time;durP1;ratioP1;P1;durP2;ratioP2;P2;SDS_P1;SDS_P2;PMS_P1;PMS_P2;Temp;Humidity;BMP_temperature;BMP_pressure;BME280_temperature;BME280_humidity;BME280_pressure;Samples;Min_cycle;Max_cycle;Signal;HPM_P1;HPM_P2
2020/12/28 00:00:09;;;;;;;1.97;0.70;;;6.70;99.90;;;;;;5067482;28;20669;-92
2020/12/28 00:02:37;;;;;;;0.90;0.80;;;6.80;99.90;;;;;;5069253;28;20641;-90
2020/12/28 00:05:06;;;;;;;1.13;0.70;;;6.70;99.90;;;;;;5065847;28;20636;-90
2020/12/28 00:07:33;;;;;;;0.93;0.50;;;6.80;99.90;;;;;;5071883;28;20640;-89
2020/12/28 00:09:59;;;;;;;0.77;0.73;;;6.80;99.90;;;;;;5066492;28;20658;-92
2020/12/28 00:12:28;;;;;;;0.80;0.50;;;6.80;99.90;;;;;;5059834;28;20637;-89
2020/12/28 00:14:54;;;;;;;0.80;0.80;;;6.80;99.90;;;;;;5066956;28;20621;-90
2020/12/28 00:17:20;;;;;;;1.17;0.87;;;6.70;99.90;;;;;;5065366;28;20658;-90
2020/12/28 00:19:48;;;;;;;0.70;0.70;;;6.70;99.90;;;;;;5070429;28;20663;-89
2020/12/28 00:22:14;;;;;;;1.60;0.77;;;6.60;99.90;;;;;;5064368;28;20621;-91
2020/12/28 00:24:42;;;;;;;0.70;0.60;;;6.60;99.90;;;;;;5060458;28;20672;-90
2020/12/28 00:27:08;;;;;;;0.77;0.77;;;6.60;99.90;;;;;;5066582;28;20640;-91
2020/12/28 00:29:34;;;;;;;0.90;0.90;;;6.60;99.90;;;;;;5068747;28;20671;-90
2020/12/28 00:32:01;;;;;;;1.17;0.80;;;6.50;99.90;;;;;;5066305;28;20790;-89
2020/12/28 00:34:27;;;;;;;0.80;0.60;;;6.50;99.90;;;;;;5077575;28;20629;-88
2020/12/28 00:36:54;;;;;;;0.60;0.60;;;6.40;99.90;;;;;;5066720;28;20660;-88
2020/12/28 00:39:22;;;;;;;1.37;0.90;;;6.50;99.90;;;;;;5064023;28;20730;-88
2020/12/28 00:41:48;;;;;;;0.87;0.60;;;6.50;99.90;;;;;;5067817;28;20908;-90
2020/12/28 00:44:14;;;;;;;1.33;0.80;;;6.50;99.90;;;;;;5065387;28;20649;-88
2020/12/28 00:46:42;;;;;;;1.00;0.67;;;6.50;99.90;;;;;;5069015;28;20645;-89
2020/12/28 00:49:08;;;;;;;1.13;0.70;;;6.50;99.90;;;;;;5074167;28;20638;-89
2020/12/28 00:51:34;;;;;;;0.90;0.60;;;6.40;99.90;;;;;;5069671;28;20711;-90
2020/12/28 00:54:01;;;;;;;0.97;0.80;;;6.40;99.90;;;;;;5069952;28;21444;-89
2020/12/28 00:56:27;;;;;;;2.93;0.70;;;6.50;99.90;;;;;;5081315;28;20812;-89
2020/12/28 00:58:54;;;;;;;0.60;0.60;;;6.50;99.90;;;;;;5074506;28;20637;-88
2020/12/28 01:01:20;;;;;;;1.07;0.60;;;6.60;99.90;;;;;;5077430;28;20660;-88
2020/12/28 01:03:47;;;;;;;1.27;1.03;;;6.60;99.90;;;;;;5072318;28;20653;-89
2020/12/28 01:06:14;;;;;;;0.80;0.80;;;6.50;99.90;;;;;;5066896;28;20637;-89
2020/12/28 01:08:41;;;;;;;2.30;0.83;;;6.60;99.90;;;;;;5076103;28;20636;-87
2020/12/28 01:11:08;;;;;;;0.90;0.90;;;6.60;99.90;;;;;;5072260;28;20676;-88
2020/12/28 01:13:35;;;;;;;0.97;0.70;;;6.50;99.90;;;;;;5067842;28;20646;-88
2020/12/28 01:16:01;;;;;;;0.80;0.50;;;6.50;99.90;;;;;;5063614;28;20634;-87
2020/12/28 01:18:28;;;;;;;0.80;0.60;;;6.50;99.90;;;;;;5070076;28;21247;-88
2020/12/28 01:20:54;;;;;;;1.23;0.93;;;6.50;99.90;;;;;;5069094;28;20668;-89
2020/12/28 01:23:20;;;;;;;1.27;0.93;;;6.50;99.90;;;;;;5072084;28;21278;-90
2020/12/28 01:25:46;;;;;;;1.93;0.70;;;6.50;99.90;;;;;;5064524;28;20762;-90
2020/12/28 01:28:13;;;;;;;1.17;0.90;;;6.50;99.90;;;;;;5063734;28;20645;-89
2020/12/28 01:30:40;;;;;;;1.07;0.70;;;6.50;99.90;;;;;;5065822;28;21284;-89
2020/12/28 01:33:06;;;;;;;0.97;0.73;;;6.50;99.90;;;;;;5066322;28;20696;-90
2020/12/28 01:35:32;;;;;;;0.80;0.73;;;6.50;99.90;;;;;;5060788;28;20640;-89
2020/12/28 01:37:58;;;;;;;1.53;0.73;;;6.50;99.90;;;;;;5067506;28;21192;-90
2020/12/28 01:40:25;;;;;;;1.40;0.60;;;6.50;99.90;;;;;;5069427;28;21238;-87
2020/12/28 01:42:51;;;;;;;0.80;0.70;;;6.60;99.90;;;;;;5067005;28;21211;-89
2020/12/28 01:45:18;;;;;;;1.40;0.60;;;6.60;99.90;;;;;;5067896;28;20648;-88
2020/12/28 01:47:45;;;;;;;1.47;0.93;;;6.60;99.90;;;;;;5061753;28;21029;-88
2020/12/28 01:50:11;;;;;;;0.80;0.80;;;6.60;99.90;;;;;;5066889;28;20663;-89
2020/12/28 01:52:38;;;;;;;1.03;0.80;;;6.60;99.90;;;;;;5061028;28;20630;-87
2020/12/28 01:55:05;;;;;;;1.77;0.70;;;6.70;99.90;;;;;;5057754;28;20636;-88
2020/12/28 01:57:31;;;;;;;0.50;0.50;;;6.70;99.90;;;;;;5066104;28;20635;-88
2020/12/28 01:59:57;;;;;;;0.60;0.50;;;6.60;99.90;;;;;;5066503;28;20673;-88
2020/12/28 02:02:28;;;;;;;0.80;0.80;;;6.60;99.90;;;;;;5065093;28;20641;-87
2020/12/28 02:04:54;;;;;;;1.33;0.47;;;6.50;99.90;;;;;;5068288;28;20638;-87
2020/12/28 02:07:23;;;;;;;0.83;0.63;;;6.50;99.90;;;;;;5069241;28;20646;-89
2020/12/28 02:09:50;;;;;;;1.00;0.60;;;6.50;99.90;;;;;;5065437;28;20680;-87
2020/12/28 02:12:17;;;;;;;0.77;0.50;;;6.60;99.90;;;;;;5066478;28;20661;-88
2020/12/28 02:14:43;;;;;;;0.90;0.70;;;6.50;99.90;;;;;;5070139;28;20640;-87
2020/12/28 02:17:11;;;;;;;0.93;0.63;;;6.50;99.90;;;;;;5069488;28;21020;-87
2020/12/28 02:19:38;;;;;;;0.80;0.67;;;6.40;99.90;;;;;;5070704;28;20665;-87
2020/12/28 02:22:05;;;;;;;1.30;1.00;;;6.40;99.90;;;;;;5081709;28;20660;-87
2020/12/28 02:24:32;;;;;;;0.70;0.63;;;6.40;99.90;;;;;;5079771;28;20635;-86
2020/12/28 02:26:58;;;;;;;1.27;0.70;;;6.30;99.90;;;;;;5064899;28;20624;-86
2020/12/28 02:29:25;;;;;;;1.10;0.77;;;6.10;99.90;;;;;;5061997;28;20655;-87
2020/12/28 02:31:53;;;;;;;0.90;0.60;;;6.20;99.90;;;;;;5060754;28;20672;-87
2020/12/28 02:34:19;;;;;;;0.67;0.50;;;6.20;99.90;;;;;;5068764;28;20641;-86
2020/12/28 02:36:46;;;;;;;1.57;0.70;;;6.10;99.90;;;;;;5068381;28;20640;-86
2020/12/28 02:39:14;;;;;;;0.70;0.53;;;6.10;99.90;;;;;;5064544;28;20634;-87
2020/12/28 02:41:41;;;;;;;0.70;0.60;;;6.00;99.90;;;;;;5066931;28;20646;-87
2020/12/28 02:44:08;;;;;;;1.17;0.80;;;6.10;99.90;;;;;;5063729;28;21224;-87
2020/12/28 02:46:35;;;;;;;0.70;0.47;;;6.00;99.90;;;;;;5063427;28;20715;-86
2020/12/28 02:49:01;;;;;;;0.97;0.57;;;6.00;99.90;;;;;;5057765;28;20641;-87
2020/12/28 02:51:28;;;;;;;0.80;0.57;;;6.00;99.90;;;;;;5062340;28;20677;-87
2020/12/28 02:53:54;;;;;;;0.67;0.50;;;6.00;99.90;;;;;;5063988;28;20825;-87
2020/12/28 02:56:21;;;;;;;1.10;0.60;;;5.90;99.90;;;;;;5068552;28;20628;-88
2020/12/28 02:58:49;;;;;;;1.00;0.53;;;6.00;99.90;;;;;;5070984;28;20640;-88
2020/12/28 03:01:16;;;;;;;2.37;0.53;;;6.00;99.90;;;;;;5070381;28;20654;-86
2020/12/28 03:03:42;;;;;;;0.50;0.40;;;6.00;99.90;;;;;;5061945;28;20649;-87
2020/12/28 03:06:08;;;;;;;0.50;0.50;;;6.00;99.90;;;;;;5063803;28;20630;-87
2020/12/28 03:08:36;;;;;;;0.50;0.40;;;6.00;99.90;;;;;;5061303;28;20635;-88
2020/12/28 03:11:02;;;;;;;0.60;0.50;;;6.00;99.90;;;;;;5057830;28;20691;-88
2020/12/28 03:13:29;;;;;;;2.33;0.70;;;6.00;99.90;;;;;;5064655;28;20666;-87
2020/12/28 03:15:56;;;;;;;0.87;0.60;;;5.90;99.90;;;;;;5068463;28;20648;-88
2020/12/28 03:18:22;;;;;;;0.80;0.80;;;5.80;99.90;;;;;;5067409;28;20642;-87
2020/12/28 03:20:48;;;;;;;0.83;0.57;;;5.80;99.90;;;;;;5061528;28;23227;-88
2020/12/28 03:23:15;;;;;;;0.90;0.60;;;5.90;99.90;;;;;;5060221;28;20642;-88
2020/12/28 03:25:41;;;;;;;0.80;0.50;;;5.90;99.90;;;;;;5068793;28;20668;-88
2020/12/28 03:28:07;;;;;;;0.87;0.47;;;5.80;99.90;;;;;;5064945;28;20640;-87
2020/12/28 03:30:34;;;;;;;1.07;0.70;;;5.90;99.90;;;;;;5062312;28;20684;-88
2020/12/28 03:33:01;;;;;;;1.00;0.40;;;5.80;99.90;;;;;;5059887;28;20713;-87
2020/12/28 03:35:27;;;;;;;0.50;0.43;;;5.80;99.90;;;;;;5065622;28;20644;-86
2020/12/28 03:37:55;;;;;;;0.67;0.53;;;5.70;99.90;;;;;;5070545;28;20645;-87
2020/12/28 03:40:21;;;;;;;0.80;0.57;;;5.70;99.90;;;;;;5071184;28;21453;-88
2020/12/28 03:42:47;;;;;;;0.60;0.60;;;5.80;99.90;;;;;;5070603;28;20632;-88
2020/12/28 03:45:14;;;;;;;0.80;0.40;;;5.80;99.90;;;;;;5068269;28;20705;-88
2020/12/28 03:47:41;;;;;;;0.90;0.60;;;6.00;99.90;;;;;;5061904;28;20681;-88
2020/12/28 03:50:07;;;;;;;3.07;0.50;;;6.00;99.90;;;;;;5067266;28;20662;-87
2020/12/28 03:52:39;;;;;;;0.70;0.37;;;5.90;99.90;;;;;;5065067;28;20687;-89
2020/12/28 03:55:05;;;;;;;0.50;0.40;;;6.00;99.90;;;;;;5064274;28;20636;-87
2020/12/28 03:57:32;;;;;;;0.67;0.50;;;5.90;99.90;;;;;;5065519;28;20639;-88
2020/12/28 03:59:58;;;;;;;0.83;0.50;;;5.80;99.90;;;;;;5072414;28;20657;-88
2020/12/28 04:02:25;;;;;;;0.60;0.60;;;5.70;99.90;;;;;;5065162;28;21355;-88
2020/12/28 04:04:54;;;;;;;0.70;0.50;;;5.60;99.90;;;;;;5069999;28;21176;-88
2020/12/28 04:07:20;;;;;;;1.83;0.60;;;5.50;99.90;;;;;;5072942;28;21254;-88
2020/12/28 04:09:47;;;;;;;0.60;0.50;;;5.40;99.90;;;;;;5068904;28;20664;-87
2020/12/28 04:12:14;;;;;;;1.03;0.70;;;5.40;99.90;;;;;;5066847;28;20692;-87
2020/12/28 04:14:40;;;;;;;1.90;0.50;;;5.40;99.90;;;;;;5066628;28;20752;-89
2020/12/28 04:17:06;;;;;;;0.80;0.47;;;5.30;99.90;;;;;;5063598;28;20637;-88
2020/12/28 04:19:33;;;;;;;0.93;0.40;;;5.10;99.90;;;;;;5068800;28;20664;-88
2020/12/28 04:22:01;;;;;;;0.70;0.60;;;5.00;99.90;;;;;;5067544;28;20634;-88
2020/12/28 04:24:27;;;;;;;0.53;0.37;;;5.00;99.90;;;;;;5070339;28;20634;-87
2020/12/28 04:26:54;;;;;;;0.60;0.50;;;4.90;99.90;;;;;;5072821;28;20648;-87
2020/12/28 04:29:21;;;;;;;0.50;0.50;;;4.80;99.90;;;;;;5064563;28;20636;-87
2020/12/28 04:31:47;;;;;;;0.60;0.50;;;4.80;99.90;;;;;;5067893;28;21087;-87
2020/12/28 04:34:14;;;;;;;0.70;0.50;;;4.70;99.90;;;;;;5072721;28;20636;-87
2020/12/28 04:36:40;;;;;;;0.70;0.43;;;4.70;99.90;;;;;;5070426;28;20641;-86
2020/12/28 04:39:07;;;;;;;0.80;0.50;;;4.80;99.90;;;;;;5071886;28;20679;-87
2020/12/28 04:41:34;;;;;;;0.70;0.47;;;4.80;99.90;;;;;;5066781;28;20638;-86
2020/12/28 04:44:01;;;;;;;0.50;0.40;;;4.90;99.90;;;;;;5064243;28;20962;-86
2020/12/28 04:46:29;;;;;;;0.90;0.50;;;4.90;99.90;;;;;;5066699;28;20982;-85
2020/12/28 04:48:55;;;;;;;1.10;0.60;;;4.90;99.90;;;;;;5064324;28;20668;-88
2020/12/28 04:51:22;;;;;;;1.20;0.50;;;4.80;99.90;;;;;;5066189;28;20682;-87
2020/12/28 04:53:51;;;;;;;1.07;0.60;;;4.80;99.90;;;;;;5065427;28;21043;-87
2020/12/28 04:56:18;;;;;;;0.67;0.50;;;4.80;99.90;;;;;;5070661;28;20631;-85
2020/12/28 04:58:45;;;;;;;0.70;0.50;;;4.80;99.90;;;;;;5068908;28;20648;-85
2020/12/28 05:01:11;;;;;;;1.50;0.70;;;4.80;99.90;;;;;;5070229;28;21043;-86
2020/12/28 05:03:39;;;;;;;1.47;0.50;;;4.80;99.90;;;;;;5067244;28;20658;-86
2020/12/28 05:06:07;;;;;;;0.93;0.60;;;4.80;99.90;;;;;;5073414;28;20628;-87
2020/12/28 05:08:33;;;;;;;1.03;0.80;;;4.80;99.90;;;;;;5065232;28;20656;-86
2020/12/28 05:11:07;;;;;;;0.80;0.47;;;4.70;99.90;;;;;;5061800;28;20681;-87
2020/12/28 05:13:34;;;;;;;0.90;0.77;;;4.80;99.90;;;;;;5066572;28;20630;-86
2020/12/28 05:16:01;;;;;;;0.80;0.70;;;4.80;99.90;;;;;;5065221;28;20731;-86
2020/12/28 05:18:28;;;;;;;2.27;0.80;;;4.80;99.90;;;;;;5066230;28;20718;-86
2020/12/28 05:20:54;;;;;;;1.53;0.80;;;4.90;99.90;;;;;;5071529;28;20656;-86
2020/12/28 05:23:21;;;;;;;1.03;0.73;;;4.90;99.90;;;;;;5062271;28;20635;-86
2020/12/28 05:25:50;;;;;;;1.40;0.70;;;4.90;99.90;;;;;;5068877;28;20635;-87
2020/12/28 05:28:19;;;;;;;2.53;0.70;;;5.00;99.90;;;;;;5063061;28;20652;-86
2020/12/28 05:30:48;;;;;;;2.00;0.60;;;5.20;99.90;;;;;;5061007;28;20689;-87
2020/12/28 05:33:15;;;;;;;1.47;0.80;;;5.30;99.90;;;;;;5063053;28;20643;-88
2020/12/28 05:35:42;;;;;;;1.47;0.70;;;5.30;99.90;;;;;;5069451;28;21219;-86
2020/12/28 05:38:11;;;;;;;2.80;0.60;;;5.40;99.90;;;;;;5065135;28;21181;-86
2020/12/28 05:40:38;;;;;;;1.77;0.60;;;5.30;99.90;;;;;;5067939;28;20727;-86
2020/12/28 05:43:06;;;;;;;0.70;0.70;;;5.20;99.90;;;;;;5080499;28;20641;-87
2020/12/28 05:45:32;;;;;;;0.83;0.77;;;5.20;99.90;;;;;;5094313;28;20642;-86
2020/12/28 05:48:01;;;;;;;1.30;0.90;;;5.10;99.90;;;;;;5080480;28;20645;-86
2020/12/28 05:50:29;;;;;;;2.53;0.70;;;5.00;99.90;;;;;;5066347;28;20671;-86
2020/12/28 05:52:58;;;;;;;3.33;0.90;;;5.10;99.90;;;;;;5068674;28;20633;-88
2020/12/28 05:55:26;;;;;;;1.27;0.80;;;4.90;99.90;;;;;;5065602;28;20917;-89
2020/12/28 05:57:55;;;;;;;1.87;0.80;;;5.00;99.90;;;;;;5064506;28;20695;-89
2020/12/28 06:00:22;;;;;;;1.23;0.70;;;5.10;99.90;;;;;;5063458;28;20718;-89
2020/12/28 06:02:49;;;;;;;0.93;0.80;;;5.10;99.90;;;;;;5066648;28;20625;-89
2020/12/28 06:05:18;;;;;;;1.00;0.90;;;5.10;99.90;;;;;;5071431;28;21034;-89
2020/12/28 06:07:44;;;;;;;1.23;0.70;;;5.10;99.90;;;;;;5065807;28;20644;-89
2020/12/28 06:10:12;;;;;;;1.20;0.90;;;5.00;99.90;;;;;;5070896;28;20655;-91
2020/12/28 06:12:39;;;;;;;1.90;0.83;;;5.10;99.90;;;;;;5066987;28;20680;-88
2020/12/28 06:15:16;;;;;;;0.80;0.63;;;5.10;99.90;;;;;;5064424;28;20645;-90
2020/12/28 06:17:43;;;;;;;2.17;0.60;;;5.20;99.90;;;;;;5063512;28;20636;-89
2020/12/28 06:20:11;;;;;;;1.03;0.60;;;5.20;99.90;;;;;;5068492;28;20654;-89
2020/12/28 06:22:39;;;;;;;4.03;1.03;;;5.30;99.90;;;;;;5062655;28;20993;-89
2020/12/28 06:25:07;;;;;;;0.87;0.60;;;5.30;99.90;;;;;;5060060;28;21042;-88
2020/12/28 06:27:35;;;;;;;2.03;1.27;;;5.20;99.90;;;;;;5062513;28;20683;-88
2020/12/28 06:30:12;;;;;;;2.63;0.90;;;5.20;99.90;;;;;;5060019;28;20657;-88
2020/12/28 06:32:39;;;;;;;0.53;0.50;;;5.30;99.90;;;;;;5068450;28;20696;-88
2020/12/28 06:35:07;;;;;;;1.03;0.93;;;5.30;99.90;;;;;;5070982;28;20724;-89
2020/12/28 06:37:43;;;;;;;0.77;0.77;;;5.20;99.90;;;;;;5066966;28;20688;-89
2020/12/28 06:40:10;;;;;;;1.23;1.03;;;5.20;99.90;;;;;;5063224;28;21247;-90
2020/12/28 06:42:36;;;;;;;1.17;0.73;;;5.10;99.90;;;;;;5061622;28;20656;-89
2020/12/28 06:45:14;;;;;;;0.77;0.77;;;5.10;99.90;;;;;;5063423;28;20656;-89
2020/12/28 06:47:41;;;;;;;1.13;0.90;;;5.10;99.90;;;;;;5058322;28;20646;-89
2020/12/28 06:50:08;;;;;;;4.20;0.87;;;5.10;99.90;;;;;;5062715;28;20666;-89
2020/12/28 06:52:34;;;;;;;1.10;0.90;;;5.10;99.90;;;;;;5065545;28;20662;-89
2020/12/28 06:55:13;;;;;;;0.83;0.80;;;5.20;99.90;;;;;;5060326;28;20627;-89
2020/12/28 06:57:39;;;;;;;0.80;0.80;;;5.30;99.90;;;;;;5060408;28;20646;-89
2020/12/28 07:00:18;;;;;;;2.23;1.17;;;5.30;99.90;;;;;;5068747;28;21196;-89
2020/12/28 07:02:50;;;;;;;1.93;1.30;;;5.40;99.90;;;;;;5058952;28;20667;-89
2020/12/28 07:05:19;;;;;;;1.33;0.90;;;5.50;99.90;;;;;;5065735;28;20743;-88
2020/12/28 07:07:46;;;;;;;1.60;1.10;;;5.40;99.90;;;;;;5068019;28;20633;-91
2020/12/28 07:10:18;;;;;;;3.17;1.40;;;5.50;99.90;;;;;;5061534;28;20674;-89
2020/12/28 07:12:44;;;;;;;0.70;0.70;;;5.40;99.90;;;;;;5058143;28;21233;-89
2020/12/28 07:15:11;;;;;;;1.10;1.00;;;5.40;99.90;;;;;;5066264;28;20640;-88
2020/12/28 07:17:38;;;;;;;1.80;1.10;;;5.30;99.90;;;;;;5066420;28;20641;-89
2020/12/28 07:20:06;;;;;;;1.60;1.03;;;5.30;99.90;;;;;;5068909;28;20658;-89
2020/12/28 07:22:34;;;;;;;1.60;1.50;;;5.30;99.90;;;;;;5067610;28;21107;-88
2020/12/28 07:25:01;;;;;;;1.90;1.10;;;5.30;99.90;;;;;;5069429;28;20687;-88
2020/12/28 07:27:28;;;;;;;1.27;1.13;;;5.30;99.90;;;;;;5065825;28;20630;-88
2020/12/28 07:29:55;;;;;;;3.80;3.20;;;5.30;99.90;;;;;;5061615;28;21103;-88
2020/12/28 07:32:21;;;;;;;2.27;1.13;;;5.20;99.90;;;;;;5064501;28;20972;-88
2020/12/28 07:34:54;;;;;;;3.17;1.20;;;5.20;99.90;;;;;;5061498;28;20639;-88
2020/12/28 07:37:21;;;;;;;2.40;2.20;;;5.10;99.90;;;;;;5069785;28;20762;-89
2020/12/28 07:39:50;;;;;;;1.73;1.63;;;5.20;99.90;;;;;;5069398;28;20662;-90
2020/12/28 07:42:20;;;;;;;1.30;1.20;;;5.20;99.90;;;;;;5069739;28;20687;-88
2020/12/28 07:44:58;;;;;;;2.60;1.53;;;5.20;99.90;;;;;;5065261;28;20630;-89
2020/12/28 07:47:37;;;;;;;2.77;2.10;;;5.30;99.90;;;;;;5065873;28;20638;-89
2020/12/28 07:50:05;;;;;;;2.30;1.20;;;5.20;99.90;;;;;;5068033;28;21576;-88
2020/12/28 07:52:39;;;;;;;2.27;1.63;;;5.30;99.90;;;;;;5065216;28;20679;-89
2020/12/28 07:55:07;;;;;;;2.00;1.57;;;5.30;99.90;;;;;;5061243;28;20643;-89
2020/12/28 07:57:45;;;;;;;2.60;1.10;;;5.10;99.90;;;;;;5063953;28;20640;-88
2020/12/28 08:00:16;;;;;;;2.40;1.93;;;5.10;99.90;;;;;;5069347;28;20733;-88
2020/12/28 08:03:08;;;;;;;3.80;2.00;;;5.10;99.90;;;;;;5070569;28;20639;-88
2020/12/28 08:05:35;;;;;;;2.43;2.20;;;5.20;99.90;;;;;;5072800;28;20641;-90
2020/12/28 08:08:02;;;;;;;3.50;1.60;;;5.30;99.90;;;;;;5074620;28;21183;-88
2020/12/28 08:10:30;;;;;;;2.00;1.70;;;5.30;99.90;;;;;;5071888;28;20766;-89
2020/12/28 08:12:59;;;;;;;2.03;1.83;;;5.40;99.90;;;;;;5076409;28;20721;-90
2020/12/28 08:15:39;;;;;;;1.87;1.63;;;5.50;99.90;;;;;;5066149;28;20658;-89
2020/12/28 08:18:07;;;;;;;0.63;0.63;;;5.60;99.90;;;;;;5071661;28;20678;-88
2020/12/28 08:20:34;;;;;;;0.90;0.90;;;5.60;99.90;;;;;;5070920;28;20688;-89
2020/12/28 08:23:01;;;;;;;0.90;0.63;;;5.60;99.90;;;;;;5066737;28;20995;-90
2020/12/28 08:25:34;;;;;;;1.37;0.90;;;5.70;99.90;;;;;;5068671;28;20630;-89
2020/12/28 08:28:02;;;;;;;1.80;1.00;;;5.60;99.90;;;;;;5074323;28;20621;-92
2020/12/28 08:30:32;;;;;;;1.03;0.90;;;5.60;99.90;;;;;;5078067;28;21022;-89
2020/12/28 08:32:59;;;;;;;1.03;0.80;;;5.70;99.90;;;;;;5062508;28;20681;-88
2020/12/28 08:35:26;;;;;;;1.00;1.00;;;5.70;99.90;;;;;;5066981;28;20705;-88
2020/12/28 08:37:53;;;;;;;1.43;1.10;;;5.70;99.90;;;;;;5075633;28;20640;-89
2020/12/28 08:40:21;;;;;;;0.67;0.60;;;5.70;99.90;;;;;;5070264;28;20660;-89
2020/12/28 08:42:52;;;;;;;0.50;0.50;;;5.70;99.90;;;;;;5066806;28;21171;-90
2020/12/28 08:45:23;;;;;;;1.07;0.67;;;5.70;99.90;;;;;;5063086;28;20652;-90
2020/12/28 08:47:55;;;;;;;1.37;0.90;;;5.70;99.90;;;;;;5071730;28;20681;-89
2020/12/28 08:50:22;;;;;;;1.20;0.80;;;5.50;99.90;;;;;;5075631;28;21235;-88
2020/12/28 08:52:50;;;;;;;0.73;0.70;;;5.70;99.90;;;;;;5070513;28;20664;-89
2020/12/28 08:55:21;;;;;;;2.20;1.07;;;5.50;99.90;;;;;;5078188;28;20639;-91
2020/12/28 08:57:55;;;;;;;1.40;1.30;;;5.50;99.90;;;;;;5080516;28;20987;-90
2020/12/28 09:00:22;;;;;;;3.13;1.20;;;5.50;99.90;;;;;;5072823;28;20766;-88
2020/12/28 09:02:57;;;;;;;2.37;1.90;;;5.50;99.90;;;;;;5071236;28;20635;-90
2020/12/28 09:05:27;;;;;;;3.07;1.60;;;5.40;99.90;;;;;;5077650;28;20628;-89
2020/12/28 09:07:53;;;;;;;1.43;1.10;;;5.40;99.90;;;;;;5094560;28;20659;-89
2020/12/28 09:10:19;;;;;;;1.90;1.27;;;5.40;99.90;;;;;;5089008;28;20672;-89
2020/12/28 09:12:47;;;;;;;1.90;1.70;;;5.50;99.90;;;;;;5074194;28;20672;-88
2020/12/28 09:15:13;;;;;;;3.03;1.37;;;5.50;99.90;;;;;;5076658;28;20636;-88
2020/12/28 09:17:40;;;;;;;2.17;1.40;;;5.40;99.90;;;;;;5076745;28;20634;-88
2020/12/28 09:20:13;;;;;;;2.80;1.20;;;5.30;99.90;;;;;;5073600;28;20711;-90
2020/12/28 09:22:40;;;;;;;2.50;1.50;;;5.40;99.90;;;;;;5062521;28;20634;-90
2020/12/28 09:25:06;;;;;;;1.90;1.47;;;5.50;99.90;;;;;;5072351;28;20635;-90
2020/12/28 09:27:33;;;;;;;8.97;2.93;;;5.50;99.90;;;;;;5068732;28;20617;-90
2020/12/28 09:30:06;;;;;;;2.27;1.47;;;5.60;99.90;;;;;;5078452;28;20658;-91
2020/12/28 09:32:33;;;;;;;2.00;1.70;;;5.60;99.90;;;;;;5073941;28;20671;-88
2020/12/28 09:34:59;;;;;;;1.63;1.30;;;5.60;99.90;;;;;;5070609;28;20645;-89
2020/12/28 09:37:27;;;;;;;1.83;1.73;;;5.50;99.90;;;;;;5070270;28;21208;-91
2020/12/28 09:39:53;;;;;;;2.27;1.50;;;5.50;99.90;;;;;;5065749;28;20776;-90
2020/12/28 09:42:19;;;;;;;2.00;1.90;;;5.60;99.90;;;;;;5065024;28;21171;-91
2020/12/28 09:44:46;;;;;;;1.90;1.70;;;5.70;99.90;;;;;;5066984;28;20685;-91
2020/12/28 09:47:15;;;;;;;2.30;1.70;;;5.80;99.90;;;;;;5065878;28;20627;-92
2020/12/28 09:49:45;;;;;;;1.60;1.50;;;5.90;99.90;;;;;;5066251;28;20701;-92
2020/12/28 09:52:12;;;;;;;1.70;1.23;;;6.10;99.90;;;;;;5066573;28;20689;-90
2020/12/28 09:54:40;;;;;;;1.40;1.30;;;6.00;99.90;;;;;;5072455;28;20644;-90
2020/12/28 09:57:07;;;;;;;1.80;1.70;;;6.00;99.90;;;;;;5071296;28;20642;-90
2020/12/28 09:59:35;;;;;;;1.70;1.60;;;6.00;99.90;;;;;;5073916;28;20689;-91
2020/12/28 10:02:01;;;;;;;1.93;1.77;;;6.00;99.90;;;;;;5064525;28;20627;-91
2020/12/28 10:04:30;;;;;;;1.60;1.50;;;5.90;99.90;;;;;;5073273;28;20700;-91
2020/12/28 10:06:56;;;;;;;2.03;1.93;;;5.80;99.90;;;;;;5074201;28;20628;-93
2020/12/28 10:09:23;;;;;;;2.23;2.03;;;5.80;99.90;;;;;;5079357;28;21029;-91
2020/12/28 10:11:58;;;;;;;3.13;2.10;;;5.90;99.90;;;;;;5080294;28;20703;-92
2020/12/28 10:14:26;;;;;;;2.43;2.23;;;5.90;99.90;;;;;;5087028;28;20633;-92
2020/12/28 10:16:53;;;;;;;3.00;2.70;;;5.80;99.90;;;;;;5081707;28;20797;-91
2020/12/28 10:19:19;;;;;;;3.37;3.07;;;5.80;99.90;;;;;;5076998;28;21217;-92
2020/12/28 10:21:46;;;;;;;2.93;2.70;;;5.90;99.90;;;;;;5082431;28;20660;-92
2020/12/28 10:24:18;;;;;;;3.90;3.20;;;5.80;99.90;;;;;;5071744;28;20656;-91
2020/12/28 10:26:54;;;;;;;3.70;3.40;;;5.80;99.90;;;;;;5076628;28;20626;-91
2020/12/28 10:29:21;;;;;;;3.07;2.77;;;5.90;99.90;;;;;;5067456;28;20698;-92
2020/12/28 10:31:47;;;;;;;3.27;2.97;;;5.80;99.90;;;;;;5064348;28;21247;-93
2020/12/28 10:34:16;;;;;;;3.53;3.17;;;5.90;99.90;;;;;;5063263;28;20707;-93
2020/12/28 10:36:44;;;;;;;2.93;2.73;;;6.00;99.90;;;;;;5076048;28;20673;-92
2020/12/28 10:39:11;;;;;;;3.70;3.40;;;6.00;99.90;;;;;;5070770;28;20733;-92
2020/12/28 10:41:40;;;;;;;3.07;2.87;;;6.00;99.90;;;;;;5075948;28;21194;-91
2020/12/28 10:44:10;;;;;;;3.20;2.90;;;6.50;99.90;;;;;;5069539;28;21151;-92
2020/12/28 10:46:37;;;;;;;2.80;2.60;;;5.90;99.90;;;;;;5074903;28;20649;-93
2020/12/28 10:49:15;;;;;;;3.33;3.03;;;5.90;99.90;;;;;;5081275;28;20710;-93
2020/12/28 10:51:44;;;;;;;3.30;3.00;;;5.80;99.90;;;;;;5071825;28;20676;-93
2020/12/28 10:54:13;;;;;;;2.87;2.67;;;5.90;99.90;;;;;;5073284;28;20655;-92
2020/12/28 10:56:40;;;;;;;3.63;2.57;;;5.90;99.90;;;;;;5075876;28;20622;-91
2020/12/28 10:59:08;;;;;;;4.77;3.47;;;5.80;99.90;;;;;;5079214;28;20673;-92
2020/12/28 11:01:35;;;;;;;3.60;3.30;;;5.80;99.90;;;;;;5075182;28;20621;-90
2020/12/28 11:04:01;;;;;;;4.37;3.97;;;5.80;99.90;;;;;;5072744;28;21275;-90
2020/12/28 11:06:29;;;;;;;5.90;4.70;;;5.90;99.90;;;;;;5068390;28;21238;-92
2020/12/28 11:08:55;;;;;;;5.00;3.60;;;5.80;99.90;;;;;;5073151;28;20680;-90
2020/12/28 11:11:22;;;;;;;4.33;3.93;;;5.70;99.90;;;;;;5081529;28;20665;-91
2020/12/28 11:13:51;;;;;;;4.23;3.83;;;5.70;99.90;;;;;;5078740;28;20644;-91
2020/12/28 11:16:25;;;;;;;4.40;3.30;;;5.70;99.90;;;;;;5075978;28;20673;-91
2020/12/28 11:18:52;;;;;;;3.57;3.27;;;5.70;99.90;;;;;;5081199;28;20676;-91
2020/12/28 11:21:18;;;;;;;4.60;3.63;;;5.80;99.90;;;;;;5076443;28;20710;-92
2020/12/28 11:24:00;;;;;;;5.60;4.13;;;5.90;99.90;;;;;;5076445;28;20668;-91
2020/12/28 11:26:28;;;;;;;4.83;3.37;;;5.90;99.90;;;;;;5067865;28;20730;-92
2020/12/28 11:28:54;;;;;;;7.00;3.80;;;5.90;99.90;;;;;;5074126;28;20982;-92
2020/12/28 11:31:22;;;;;;;4.30;3.90;;;6.00;99.90;;;;;;5059576;28;20703;-92
2020/12/28 11:33:48;;;;;;;4.30;3.90;;;6.00;99.90;;;;;;5063922;28;21080;-92
2020/12/28 11:36:15;;;;;;;6.63;4.40;;;6.00;99.90;;;;;;5068204;28;20756;-92
2020/12/28 11:38:42;;;;;;;8.03;4.27;;;5.90;99.90;;;;;;5069771;28;20854;-92
2020/12/28 11:41:09;;;;;;;6.53;5.30;;;6.10;99.90;;;;;;5067484;28;20690;-91
2020/12/28 11:43:35;;;;;;;4.33;3.77;;;6.10;99.90;;;;;;5068234;28;20637;-90
2020/12/28 11:46:02;;;;;;;4.57;4.13;;;6.20;99.90;;;;;;5065547;28;20980;-91
2020/12/28 11:48:32;;;;;;;3.87;3.57;;;6.20;99.90;;;;;;5070527;28;20636;-92
2020/12/28 11:50:59;;;;;;;4.97;4.00;;;6.10;99.90;;;;;;5072387;28;20699;-92
2020/12/28 11:53:26;;;;;;;4.70;4.20;;;6.10;99.90;;;;;;5066183;28;20718;-91
2020/12/28 11:56:12;;;;;;;4.83;4.00;;;6.10;99.90;;;;;;5066548;28;20640;-92
2020/12/28 11:58:44;;;;;;;4.67;4.23;;;6.10;99.90;;;;;;5062049;28;20637;-91
2020/12/28 12:01:12;;;;;;;4.70;4.30;;;6.00;99.90;;;;;;5066671;28;20655;-91
2020/12/28 12:03:40;;;;;;;7.00;5.30;;;6.10;99.90;;;;;;5070305;28;20649;-91
2020/12/28 12:06:13;;;;;;;4.03;3.63;;;6.10;99.90;;;;;;5059304;28;21296;-92
2020/12/28 12:09:09;;;;;;;4.30;3.83;;;6.20;99.90;;;;;;5071441;28;20648;-91
2020/12/28 12:11:31;;;;;;;7.10;5.50;;;6.20;99.90;;;;;;5066311;28;20725;-91
2020/12/28 12:13:59;;;;;;;5.83;5.10;;;6.20;99.90;;;;;;5063849;28;20634;-93
2020/12/28 12:16:28;;;;;;;6.57;4.80;;;6.20;99.90;;;;;;5070972;28;20633;-91
2020/12/28 12:18:55;;;;;;;6.90;5.37;;;6.30;99.90;;;;;;5066848;28;20634;-92
2020/12/28 12:21:23;;;;;;;8.73;5.67;;;6.40;99.90;;;;;;5065960;28;20627;-91
2020/12/28 12:23:50;;;;;;;11.33;6.00;;;6.20;99.90;;;;;;5068654;28;20615;-92
2020/12/28 12:26:19;;;;;;;6.30;5.43;;;6.30;99.90;;;;;;5065465;28;20655;-91
2020/12/28 12:28:45;;;;;;;6.80;6.10;;;6.20;99.90;;;;;;5076544;28;20637;-91
2020/12/28 12:31:13;;;;;;;7.30;5.90;;;6.20;99.90;;;;;;5088438;28;20648;-92
2020/12/28 12:33:40;;;;;;;7.00;5.53;;;6.30;99.90;;;;;;5089364;28;20624;-92
2020/12/28 12:36:09;;;;;;;7.93;7.13;;;6.20;99.90;;;;;;5083987;28;20649;-92
2020/12/28 12:38:42;;;;;;;7.00;6.20;;;6.20;99.90;;;;;;5068326;28;20640;-92
2020/12/28 12:41:16;;;;;;;8.10;7.10;;;6.30;99.90;;;;;;5066260;28;20622;-91
2020/12/28 12:43:43;;;;;;;8.33;7.53;;;6.40;99.90;;;;;;5071011;28;21150;-91
2020/12/28 12:46:12;;;;;;;7.97;6.57;;;6.40;99.90;;;;;;5070947;28;20637;-92
2020/12/28 12:48:39;;;;;;;7.77;7.07;;;6.30;99.90;;;;;;5068556;28;20798;-92
2020/12/28 12:51:06;;;;;;;9.63;6.80;;;6.30;99.90;;;;;;5068705;28;20660;-92
2020/12/28 12:53:34;;;;;;;8.20;7.30;;;6.30;99.90;;;;;;5065933;28;20640;-92
2020/12/28 12:56:01;;;;;;;7.97;7.17;;;6.30;99.90;;;;;;5069116;28;20636;-92
2020/12/28 12:58:27;;;;;;;9.10;8.17;;;6.10;99.90;;;;;;5067046;28;20654;-89
2020/12/28 13:00:53;;;;;;;9.93;7.47;;;6.10;99.90;;;;;;5073563;28;20674;-89